sensor_id;sensor_type;location;lat;lon;timestamp;pressure;altitude;pressure_sealevel;temperature;humidity
10992;BME280;5549;47.028;15.514;2024-02-15T00:00:12;97195.94;;;8.78;44.24
10992;BME280;5549;47.028;15.514;2024-02-15T00:02:47;97196.16;;;8.75;44.38
10992;BME280;5549;47.028;15.514;2024-02-15T00:05:17;97198.13;;;8.72;44.76
10992;BME280;5549;47.028;15.514;2024-02-15T00:07:46;97196.31;;;8.59;44.88
10992;BME280;5549;47.028;15.514;2024-02-15T00:10:15;97197.16;;;8.33;45.29
10992;BME280;5549;47.028;15.514;2024-02-15T00:12:43;97197.91;;;8.35;45.42
10992;BME280;5549;47.028;15.514;2024-02-15T00:15:13;97203.41;;;8.30;45.49
10992;BME280;5549;47.028;15.514;2024-02-15T00:17:43;97201.28;;;8.23;45.39
10992;BME280;5549;47.028;15.514;2024-02-15T00:20:12;97198.22;;;8.16;45.74
10992;BME280;5549;47.028;15.514;2024-02-15T00:22:42;97196.75;;;8.12;45.64
10992;BME280;5549;47.028;15.514;2024-02-15T00:25:12;97195.31;;;8.21;45.64
10992;BME280;5549;47.028;15.514;2024-02-15T00:27:40;97197.53;;;8.27;45.67
10992;BME280;5549;47.028;15.514;2024-02-15T00:30:09;97197.84;;;8.22;44.99
10992;BME280;5549;47.028;15.514;2024-02-15T00:32:40;97196.16;;;8.21;44.88
10992;BME280;5549;47.028;15.514;2024-02-15T00:35:10;97202.97;;;8.24;44.54
10992;BME280;5549;47.028;15.514;2024-02-15T00:37:41;97202.41;;;8.19;44.32
10992;BME280;5549;47.028;15.514;2024-02-15T00:40:13;97211.22;;;8.18;44.55
10992;BME280;5549;47.028;15.514;2024-02-15T00:42:48;97212.59;;;8.23;44.39
10992;BME280;5549;47.028;15.514;2024-02-15T00:45:16;97203.72;;;8.26;44.47
10992;BME280;5549;47.028;15.514;2024-02-15T00:47:46;97207.06;;;8.28;44.34
10992;BME280;5549;47.028;15.514;2024-02-15T00:50:16;97195.75;;;8.27;44.50
10992;BME280;5549;47.028;15.514;2024-02-15T00:52:44;97199.22;;;8.28;44.09
10992;BME280;5549;47.028;15.514;2024-02-15T00:55:16;97199.94;;;8.30;43.92
10992;BME280;5549;47.028;15.514;2024-02-15T00:57:43;97195.31;;;8.21;43.61
10992;BME280;5549;47.028;15.514;2024-02-15T01:00:15;97199.59;;;8.22;43.91
10992;BME280;5549;47.028;15.514;2024-02-15T01:02:43;97191.97;;;8.19;44.03
10992;BME280;5549;47.028;15.514;2024-02-15T01:05:13;97197.94;;;8.21;43.91
10992;BME280;5549;47.028;15.514;2024-02-15T01:07:42;97208.09;;;8.25;44.35
10992;BME280;5549;47.028;15.514;2024-02-15T01:10:09;97211.56;;;8.26;44.17
10992;BME280;5549;47.028;15.514;2024-02-15T01:12:42;97209.59;;;8.29;44.43
10992;BME280;5549;47.028;15.514;2024-02-15T01:15:10;97211.16;;;8.32;44.52
10992;BME280;5549;47.028;15.514;2024-02-15T01:17:38;97213.97;;;8.29;44.16
10992;BME280;5549;47.028;15.514;2024-02-15T01:20:09;97206.59;;;8.35;44.60
10992;BME280;5549;47.028;15.514;2024-02-15T01:22:39;97209.47;;;8.31;44.96
10992;BME280;5549;47.028;15.514;2024-02-15T01:25:09;97204.66;;;8.25;45.06
10992;BME280;5549;47.028;15.514;2024-02-15T01:27:38;97200.53;;;8.21;45.05
10992;BME280;5549;47.028;15.514;2024-02-15T01:30:10;97207.47;;;8.22;45.13
10992;BME280;5549;47.028;15.514;2024-02-15T01:32:38;97193.63;;;8.20;44.94
10992;BME280;5549;47.028;15.514;2024-02-15T01:35:08;97197.19;;;8.19;45.23
10992;BME280;5549;47.028;15.514;2024-02-15T01:37:37;97198.78;;;8.21;45.07
10992;BME280;5549;47.028;15.514;2024-02-15T01:40:06;97198.78;;;8.21;45.58
10992;BME280;5549;47.028;15.514;2024-02-15T01:42:37;97194.66;;;8.17;45.97
10992;BME280;5549;47.028;15.514;2024-02-15T01:45:09;97191.97;;;8.19;46.01
10992;BME280;5549;47.028;15.514;2024-02-15T01:47:40;97193.28;;;8.12;46.10
10992;BME280;5549;47.028;15.514;2024-02-15T01:50:10;97193.84;;;8.17;46.77
10992;BME280;5549;47.028;15.514;2024-02-15T01:52:39;97193.88;;;8.02;47.53
10992;BME280;5549;47.028;15.514;2024-02-15T01:55:09;97191.84;;;7.93;47.66
10992;BME280;5549;47.028;15.514;2024-02-15T01:57:39;97181.59;;;7.90;48.04
10992;BME280;5549;47.028;15.514;2024-02-15T02:00:10;97187.00;;;7.87;48.01
10992;BME280;5549;47.028;15.514;2024-02-15T02:02:42;97181.13;;;7.84;48.26
10992;BME280;5549;47.028;15.514;2024-02-15T02:05:11;97191.53;;;7.71;48.81
10992;BME280;5549;47.028;15.514;2024-02-15T02:07:39;97178.84;;;7.65;49.21
10992;BME280;5549;47.028;15.514;2024-02-15T02:10:10;97178.53;;;7.69;48.79
10992;BME280;5549;47.028;15.514;2024-02-15T02:12:41;97170.59;;;7.71;49.03
10992;BME280;5549;47.028;15.514;2024-02-15T02:15:12;97174.16;;;7.70;48.56
10992;BME280;5549;47.028;15.514;2024-02-15T02:17:49;97172.75;;;7.64;49.27
10992;BME280;5549;47.028;15.514;2024-02-15T02:20:20;97174.53;;;7.64;48.93
10992;BME280;5549;47.028;15.514;2024-02-15T02:22:52;97175.28;;;7.66;48.49
10992;BME280;5549;47.028;15.514;2024-02-15T02:25:26;97169.41;;;7.62;49.09
10992;BME280;5549;47.028;15.514;2024-02-15T02:27:56;97174.09;;;7.57;49.12
10992;BME280;5549;47.028;15.514;2024-02-15T02:30:26;97171.38;;;7.59;49.54
10992;BME280;5549;47.028;15.514;2024-02-15T02:32:55;97176.03;;;7.54;48.74
10992;BME280;5549;47.028;15.514;2024-02-15T02:35:28;97175.94;;;7.55;48.87
10992;BME280;5549;47.028;15.514;2024-02-15T02:37:57;97175.50;;;7.49;49.26
10992;BME280;5549;47.028;15.514;2024-02-15T02:40:29;97177.44;;;7.59;49.54
10992;BME280;5549;47.028;15.514;2024-02-15T02:42:57;97171.56;;;7.56;50.69
10992;BME280;5549;47.028;15.514;2024-02-15T02:45:26;97173.91;;;7.46;52.03
10992;BME280;5549;47.028;15.514;2024-02-15T02:47:58;97159.88;;;7.61;51.60
10992;BME280;5549;47.028;15.514;2024-02-15T02:50:26;97165.28;;;7.72;52.22
10992;BME280;5549;47.028;15.514;2024-02-15T02:52:54;97164.66;;;7.55;53.11
10992;BME280;5549;47.028;15.514;2024-02-15T02:55:24;97162.22;;;7.66;51.87
10992;BME280;5549;47.028;15.514;2024-02-15T02:57:57;97161.44;;;7.78;51.56
10992;BME280;5549;47.028;15.514;2024-02-15T03:00:24;97170.03;;;7.80;51.00
10992;BME280;5549;47.028;15.514;2024-02-15T03:02:56;97160.16;;;7.71;51.82
10992;BME280;5549;47.028;15.514;2024-02-15T03:05:24;97156.75;;;7.83;51.01
10992;BME280;5549;47.028;15.514;2024-02-15T03:07:52;97157.84;;;7.93;50.61
10992;BME280;5549;47.028;15.514;2024-02-15T03:10:21;97158.00;;;7.63;52.15
10992;BME280;5549;47.028;15.514;2024-02-15T03:12:55;97152.41;;;7.69;52.47
10992;BME280;5549;47.028;15.514;2024-02-15T03:15:26;97158.44;;;7.84;52.15
10992;BME280;5549;47.028;15.514;2024-02-15T03:17:58;97157.88;;;7.79;53.27
10992;BME280;5549;47.028;15.514;2024-02-15T03:20:26;97159.63;;;7.93;52.16
10992;BME280;5549;47.028;15.514;2024-02-15T03:22:57;97161.31;;;7.94;52.98
10992;BME280;5549;47.028;15.514;2024-02-15T03:25:28;97168.53;;;7.76;51.41
10992;BME280;5549;47.028;15.514;2024-02-15T03:27:59;97159.44;;;7.55;50.55
10992;BME280;5549;47.028;15.514;2024-02-15T03:30:33;97165.41;;;7.57;50.29
10992;BME280;5549;47.028;15.514;2024-02-15T03:33:01;97173.78;;;7.62;51.02
10992;BME280;5549;47.028;15.514;2024-02-15T03:35:31;97168.75;;;7.59;50.72
10992;BME280;5549;47.028;15.514;2024-02-15T03:37:59;97162.03;;;7.55;50.47
10992;BME280;5549;47.028;15.514;2024-02-15T03:40:29;97151.50;;;7.56;50.76
10992;BME280;5549;47.028;15.514;2024-02-15T03:43:03;97153.06;;;7.59;51.04
10992;BME280;5549;47.028;15.514;2024-02-15T03:45:33;97155.50;;;7.62;50.54
10992;BME280;5549;47.028;15.514;2024-02-15T03:48:04;97153.63;;;7.64;50.90
10992;BME280;5549;47.028;15.514;2024-02-15T03:50:33;97145.25;;;7.59;50.90
10992;BME280;5549;47.028;15.514;2024-02-15T03:53:04;97139.03;;;7.19;53.07
10992;BME280;5549;47.028;15.514;2024-02-15T03:55:32;97146.94;;;7.31;52.66
10992;BME280;5549;47.028;15.514;2024-02-15T03:58:06;97144.31;;;7.46;51.75
10992;BME280;5549;47.028;15.514;2024-02-15T04:00:35;97148.22;;;7.53;51.67
10992;BME280;5549;47.028;15.514;2024-02-15T04:03:06;97145.44;;;7.56;51.02
10992;BME280;5549;47.028;15.514;2024-02-15T04:05:34;97138.91;;;7.49;51.67
10992;BME280;5549;47.028;15.514;2024-02-15T04:08:03;97142.81;;;7.56;51.00
10992;BME280;5549;47.028;15.514;2024-02-15T04:10:32;97148.22;;;7.67;51.23
10992;BME280;5549;47.028;15.514;2024-02-15T04:13:02;97149.50;;;7.74;51.61
10992;BME280;5549;47.028;15.514;2024-02-15T04:15:33;97151.91;;;7.77;51.82
10992;BME280;5549;47.028;15.514;2024-02-15T04:18:03;97151.06;;;7.77;51.94
10992;BME280;5549;47.028;15.514;2024-02-15T04:20:32;97144.06;;;7.77;51.30
10992;BME280;5549;47.028;15.514;2024-02-15T04:23:00;97146.88;;;7.74;51.97
10992;BME280;5549;47.028;15.514;2024-02-15T04:25:30;97154.72;;;7.74;51.49
10992;BME280;5549;47.028;15.514;2024-02-15T04:27:57;97153.25;;;7.70;51.67
10992;BME280;5549;47.028;15.514;2024-02-15T04:30:34;97156.78;;;7.69;51.83
10992;BME280;5549;47.028;15.514;2024-02-15T04:33:05;97159.69;;;7.64;51.71
10992;BME280;5549;47.028;15.514;2024-02-15T04:35:33;97151.78;;;7.52;51.91
10992;BME280;5549;47.028;15.514;2024-02-15T04:38:01;97154.31;;;7.39;52.31
10992;BME280;5549;47.028;15.514;2024-02-15T04:40:30;97160.38;;;7.39;52.11
10992;BME280;5549;47.028;15.514;2024-02-15T04:42:58;97154.97;;;7.43;52.62
10992;BME280;5549;47.028;15.514;2024-02-15T04:45:28;97150.88;;;7.38;53.67
10992;BME280;5549;47.028;15.514;2024-02-15T04:47:58;97155.34;;;7.22;53.54
10992;BME280;5549;47.028;15.514;2024-02-15T04:50:28;97153.94;;;7.31;53.21
10992;BME280;5549;47.028;15.514;2024-02-15T04:52:57;97154.41;;;7.37;53.39
10992;BME280;5549;47.028;15.514;2024-02-15T04:55:24;97152.91;;;7.48;53.41
10992;BME280;5549;47.028;15.514;2024-02-15T04:57:53;97154.41;;;7.52;53.31
10992;BME280;5549;47.028;15.514;2024-02-15T05:00:24;97156.25;;;7.50;53.70
10992;BME280;5549;47.028;15.514;2024-02-15T05:02:53;97155.34;;;7.51;53.87
10992;BME280;5549;47.028;15.514;2024-02-15T05:05:22;97162.25;;;7.52;53.53
10992;BME280;5549;47.028;15.514;2024-02-15T05:07:51;97160.38;;;7.54;53.71
10992;BME280;5549;47.028;15.514;2024-02-15T05:10:21;97169.03;;;7.54;53.05
10992;BME280;5549;47.028;15.514;2024-02-15T05:12:51;97168.88;;;7.43;54.30
10992;BME280;5549;47.028;15.514;2024-02-15T05:15:23;97161.31;;;7.38;54.38
10992;BME280;5549;47.028;15.514;2024-02-15T05:17:51;97162.34;;;7.50;54.13
10992;BME280;5549;47.028;15.514;2024-02-15T05:20:21;97165.88;;;7.49;55.73
10992;BME280;5549;47.028;15.514;2024-02-15T05:22:56;97164.09;;;7.50;55.17
10992;BME280;5549;47.028;15.514;2024-02-15T05:25:26;97164.94;;;7.50;54.35
10992;BME280;5549;47.028;15.514;2024-02-15T05:27:54;97166.06;;;7.46;54.89
10992;BME280;5549;47.028;15.514;2024-02-15T05:30:24;97162.53;;;7.47;54.86
10992;BME280;5549;47.028;15.514;2024-02-15T05:32:54;97161.03;;;7.43;55.33
10992;BME280;5549;47.028;15.514;2024-02-15T05:35:26;97160.38;;;7.39;55.36
10992;BME280;5549;47.028;15.514;2024-02-15T05:37:54;97160.19;;;7.43;54.78
10992;BME280;5549;47.028;15.514;2024-02-15T05:40:22;97163.66;;;7.43;54.84
10992;BME280;5549;47.028;15.514;2024-02-15T05:42:55;97161.78;;;7.31;55.55
10992;BME280;5549;47.028;15.514;2024-02-15T05:45:31;97167.94;;;7.44;54.41
10992;BME280;5549;47.028;15.514;2024-02-15T05:48:00;97174.19;;;7.42;55.60
10992;BME280;5549;47.028;15.514;2024-02-15T05:50:32;97165.88;;;7.49;55.23
10992;BME280;5549;47.028;15.514;2024-02-15T05:53:02;97167.81;;;7.60;55.09
10992;BME280;5549;47.028;15.514;2024-02-15T05:55:33;97159.50;;;7.67;54.44
10992;BME280;5549;47.028;15.514;2024-02-15T05:58:04;97159.75;;;7.77;54.68
10992;BME280;5549;47.028;15.514;2024-02-15T06:00:37;97154.88;;;7.85;54.61
10992;BME280;5549;47.028;15.514;2024-02-15T06:03:09;97152.91;;;7.89;55.80
10992;BME280;5549;47.028;15.514;2024-02-15T06:05:40;97156.47;;;7.88;55.93
10992;BME280;5549;47.028;15.514;2024-02-15T06:08:09;97173.09;;;7.87;55.66
10992;BME280;5549;47.028;15.514;2024-02-15T06:10:38;97167.03;;;7.86;55.20
10992;BME280;5549;47.028;15.514;2024-02-15T06:13:08;97170.66;;;7.84;55.83
10992;BME280;5549;47.028;15.514;2024-02-15T06:15:38;97165.34;;;7.85;56.26
10992;BME280;5549;47.028;15.514;2024-02-15T06:18:06;97174.56;;;7.91;57.02
10992;BME280;5549;47.028;15.514;2024-02-15T06:20:36;97172.78;;;7.91;57.41
10992;BME280;5549;47.028;15.514;2024-02-15T06:23:10;97181.59;;;7.90;57.81
10992;BME280;5549;47.028;15.514;2024-02-15T06:25:42;97181.03;;;7.85;58.71
10992;BME280;5549;47.028;15.514;2024-02-15T06:28:10;97179.19;;;7.73;59.83
10992;BME280;5549;47.028;15.514;2024-02-15T06:30:46;97189.97;;;7.95;58.50
10992;BME280;5549;47.028;15.514;2024-02-15T06:33:33;97195.00;;;7.98;58.28
10992;BME280;5549;47.028;15.514;2024-02-15T06:36:18;97184.41;;;8.14;58.10
10992;BME280;5549;47.028;15.514;2024-02-15T06:39:07;97188.13;;;8.51;65.92
10992;BME280;5549;47.028;15.514;2024-02-15T06:41:52;97182.88;;;9.04;68.62
10992;BME280;5549;47.028;15.514;2024-02-15T06:44:19;97190.31;;;9.48;67.71
10992;BME280;5549;47.028;15.514;2024-02-15T06:46:49;97184.03;;;9.87;65.14
10992;BME280;5549;47.028;15.514;2024-02-15T06:49:19;97184.56;;;10.16;60.79
10992;BME280;5549;47.028;15.514;2024-02-15T06:51:48;97181.88;;;10.41;58.20
10992;BME280;5549;47.028;15.514;2024-02-15T06:54:17;97188.31;;;10.61;56.58
10992;BME280;5549;47.028;15.514;2024-02-15T06:56:48;97186.09;;;10.79;56.20
10992;BME280;5549;47.028;15.514;2024-02-15T06:59:15;97183.75;;;10.98;55.32
10992;BME280;5549;47.028;15.514;2024-02-15T07:01:47;97187.72;;;11.15;54.50
10992;BME280;5549;47.028;15.514;2024-02-15T07:04:17;97196.13;;;11.31;53.56
10992;BME280;5549;47.028;15.514;2024-02-15T07:06:47;97201.38;;;11.42;53.44
10992;BME280;5549;47.028;15.514;2024-02-15T07:09:17;97192.19;;;11.59;53.39
10992;BME280;5549;47.028;15.514;2024-02-15T07:11:46;97196.88;;;11.78;53.43
10992;BME280;5549;47.028;15.514;2024-02-15T07:14:14;97188.47;;;11.95;52.74
10992;BME280;5549;47.028;15.514;2024-02-15T07:16:45;97189.03;;;12.10;52.76
10992;BME280;5549;47.028;15.514;2024-02-15T07:19:13;97187.13;;;12.23;51.81
10992;BME280;5549;47.028;15.514;2024-02-15T07:21:42;97188.91;;;12.34;51.37
10992;BME280;5549;47.028;15.514;2024-02-15T07:24:10;97185.00;;;12.49;50.87
10992;BME280;5549;47.028;15.514;2024-02-15T07:26:39;97186.31;;;12.55;50.03
10992;BME280;5549;47.028;15.514;2024-02-15T07:29:07;97193.34;;;12.65;50.34
10992;BME280;5549;47.028;15.514;2024-02-15T07:31:36;97190.66;;;12.76;50.26
10992;BME280;5549;47.028;15.514;2024-02-15T07:34:07;97190.00;;;12.84;50.30
10992;BME280;5549;47.028;15.514;2024-02-15T07:36:36;97186.88;;;12.90;50.46
10992;BME280;5549;47.028;15.514;2024-02-15T07:39:05;97187.63;;;13.02;49.72
10992;BME280;5549;47.028;15.514;2024-02-15T07:41:39;97182.94;;;13.05;49.52
10992;BME280;5549;47.028;15.514;2024-02-15T07:44:07;97179.53;;;13.14;48.32
10992;BME280;5549;47.028;15.514;2024-02-15T07:46:34;97175.00;;;13.16;47.85
10992;BME280;5549;47.028;15.514;2024-02-15T07:49:04;97166.34;;;13.14;47.45
10992;BME280;5549;47.028;15.514;2024-02-15T07:51:33;97166.22;;;13.16;48.08
10992;BME280;5549;47.028;15.514;2024-02-15T07:54:05;97164.81;;;13.33;48.27
10992;BME280;5549;47.028;15.514;2024-02-15T07:56:32;97157.78;;;13.43;48.26
10992;BME280;5549;47.028;15.514;2024-02-15T07:59:05;97156.03;;;13.53;48.03
10992;BME280;5549;47.028;15.514;2024-02-15T08:01:35;97158.00;;;13.61;48.10
10992;BME280;5549;47.028;15.514;2024-02-15T08:04:05;97158.00;;;13.30;47.49
10992;BME280;5549;47.028;15.514;2024-02-15T08:06:37;97150.06;;;13.09;47.54
10992;BME280;5549;47.028;15.514;2024-02-15T08:09:05;97159.59;;;12.80;47.55
10992;BME280;5549;47.028;15.514;2024-02-15T08:11:36;97162.00;;;12.51;47.75
10992;BME280;5549;47.028;15.514;2024-02-15T08:14:07;97164.16;;;12.57;49.12
10992;BME280;5549;47.028;15.514;2024-02-15T08:16:39;97157.94;;;12.79;49.40
10992;BME280;5549;47.028;15.514;2024-02-15T08:19:07;97165.97;;;12.77;48.57
10992;BME280;5549;47.028;15.514;2024-02-15T08:21:37;97170.66;;;12.74;48.58
10992;BME280;5549;47.028;15.514;2024-02-15T08:24:10;97175.41;;;12.80;48.50
10992;BME280;5549;47.028;15.514;2024-02-15T08:26:40;97167.97;;;12.85;48.35
10992;BME280;5549;47.028;15.514;2024-02-15T08:29:09;97165.84;;;12.79;48.17
10992;BME280;5549;47.028;15.514;2024-02-15T08:31:38;97164.63;;;12.83;48.10
10992;BME280;5549;47.028;15.514;2024-02-15T08:34:07;97165.38;;;12.95;48.01
10992;BME280;5549;47.028;15.514;2024-02-15T08:36:40;97164.63;;;13.04;48.56
10992;BME280;5549;47.028;15.514;2024-02-15T08:39:07;97168.50;;;13.21;49.20
10992;BME280;5549;47.028;15.514;2024-02-15T08:41:40;97171.22;;;13.40;49.11
10992;BME280;5549;47.028;15.514;2024-02-15T08:44:09;97170.53;;;13.68;48.25
10992;BME280;5549;47.028;15.514;2024-02-15T08:46:44;97166.34;;;13.96;47.79
10992;BME280;5549;47.028;15.514;2024-02-15T08:49:14;97163.75;;;14.25;47.43
10992;BME280;5549;47.028;15.514;2024-02-15T08:51:44;97159.50;;;14.53;46.69
10992;BME280;5549;47.028;15.514;2024-02-15T08:54:14;97158.66;;;14.72;46.65
10992;BME280;5549;47.028;15.514;2024-02-15T08:56:49;97162.25;;;14.90;46.22
10992;BME280;5549;47.028;15.514;2024-02-15T08:59:19;97152.78;;;14.97;44.81
10992;BME280;5549;47.028;15.514;2024-02-15T09:01:47;97137.44;;;15.11;43.85
10992;BME280;5549;47.028;15.514;2024-02-15T09:04:14;97142.75;;;15.11;43.77
10992;BME280;5549;47.028;15.514;2024-02-15T09:06:44;97145.50;;;15.19;44.41
10992;BME280;5549;47.028;15.514;2024-02-15T09:09:14;97146.16;;;15.30;43.96
10992;BME280;5549;47.028;15.514;2024-02-15T09:11:44;97138.50;;;15.37;43.21
10992;BME280;5549;47.028;15.514;2024-02-15T09:14:12;97140.56;;;15.43;43.68
10992;BME280;5549;47.028;15.514;2024-02-15T09:16:43;97148.31;;;15.54;44.74
10992;BME280;5549;47.028;15.514;2024-02-15T09:19:13;97146.53;;;15.64;44.97
10992;BME280;5549;47.028;15.514;2024-02-15T09:21:43;97145.34;;;15.77;44.38
10992;BME280;5549;47.028;15.514;2024-02-15T09:24:13;97146.09;;;15.96;43.61
10992;BME280;5549;47.028;15.514;2024-02-15T09:26:42;97145.13;;;16.15;43.27
10992;BME280;5549;47.028;15.514;2024-02-15T09:29:11;97143.41;;;16.42;43.06
10992;BME280;5549;47.028;15.514;2024-02-15T09:31:43;97144.31;;;16.50;42.43
10992;BME280;5549;47.028;15.514;2024-02-15T09:34:11;97145.63;;;16.64;42.48
10992;BME280;5549;47.028;15.514;2024-02-15T09:36:41;97136.84;;;16.81;42.18
10992;BME280;5549;47.028;15.514;2024-02-15T09:39:11;97148.63;;;17.05;41.05
10992;BME280;5549;47.028;15.514;2024-02-15T09:41:42;97138.00;;;17.05;41.07
10992;BME280;5549;47.028;15.514;2024-02-15T09:44:10;97150.09;;;17.25;41.03
10992;BME280;5549;47.028;15.514;2024-02-15T09:46:44;97139.31;;;17.00;40.33
10992;BME280;5549;47.028;15.514;2024-02-15T09:49:15;97138.06;;;17.13;41.23
10992;BME280;5549;47.028;15.514;2024-02-15T09:51:48;97134.16;;;17.25;41.03
10992;BME280;5549;47.028;15.514;2024-02-15T09:54:18;97136.25;;;17.13;40.29
10992;BME280;5549;47.028;15.514;2024-02-15T09:56:49;97134.69;;;17.03;39.47
10992;BME280;5549;47.028;15.514;2024-02-15T09:59:17;97134.31;;;16.97;40.57
10992;BME280;5549;47.028;15.514;2024-02-15T10:01:49;97130.25;;;16.85;40.02
10992;BME280;5549;47.028;15.514;2024-02-15T10:04:18;97136.09;;;16.71;40.17
10992;BME280;5549;47.028;15.514;2024-02-15T10:06:48;97134.56;;;16.51;40.33
10992;BME280;5549;47.028;15.514;2024-02-15T10:09:26;97137.28;;;16.41;40.68
10992;BME280;5549;47.028;15.514;2024-02-15T10:11:58;97131.44;;;16.38;42.14
10992;BME280;5549;47.028;15.514;2024-02-15T10:14:28;97121.75;;;16.28;42.55
10992;BME280;5549;47.028;15.514;2024-02-15T10:16:57;97123.34;;;16.21;41.73
10992;BME280;5549;47.028;15.514;2024-02-15T10:19:34;97115.00;;;16.16;42.03
10992;BME280;5549;47.028;15.514;2024-02-15T10:22:07;97124.44;;;16.01;42.43
10992;BME280;5549;47.028;15.514;2024-02-15T10:24:37;97120.13;;;16.00;41.49
10992;BME280;5549;47.028;15.514;2024-02-15T10:27:08;97117.69;;;15.89;40.65
10992;BME280;5549;47.028;15.514;2024-02-15T10:29:37;97119.06;;;15.65;41.41
10992;BME280;5549;47.028;15.514;2024-02-15T10:32:09;97124.38;;;15.65;42.31
10992;BME280;5549;47.028;15.514;2024-02-15T10:34:44;97124.50;;;15.54;43.45
10992;BME280;5549;47.028;15.514;2024-02-15T10:37:13;97119.63;;;15.59;44.05
10992;BME280;5549;47.028;15.514;2024-02-15T10:39:46;97119.06;;;15.56;43.15
10992;BME280;5549;47.028;15.514;2024-02-15T10:42:33;97114.53;;;15.38;43.97
10992;BME280;5549;47.028;15.514;2024-02-15T10:45:04;97115.75;;;15.44;43.14
10992;BME280;5549;47.028;15.514;2024-02-15T10:47:40;97111.16;;;15.46;44.11
10992;BME280;5549;47.028;15.514;2024-02-15T10:50:09;97114.97;;;15.34;44.74
10992;BME280;5549;47.028;15.514;2024-02-15T10:52:48;97109.22;;;15.38;43.96
10992;BME280;5549;47.028;15.514;2024-02-15T10:55:35;97108.97;;;15.32;44.02
10992;BME280;5549;47.028;15.514;2024-02-15T10:58:07;97102.72;;;15.33;43.62
10992;BME280;5549;47.028;15.514;2024-02-15T11:00:35;97099.47;;;15.39;43.53
10992;BME280;5549;47.028;15.514;2024-02-15T11:03:08;97093.00;;;15.51;43.09
10992;BME280;5549;47.028;15.514;2024-02-15T11:05:42;97096.50;;;15.52;45.15
10992;BME280;5549;47.028;15.514;2024-02-15T11:08:14;97092.53;;;15.38;43.78
10992;BME280;5549;47.028;15.514;2024-02-15T11:10:43;97084.03;;;15.34;44.19
10992;BME280;5549;47.028;15.514;2024-02-15T11:13:12;97084.88;;;15.35;44.88
10992;BME280;5549;47.028;15.514;2024-02-15T11:15:45;97087.31;;;15.46;44.05
10992;BME280;5549;47.028;15.514;2024-02-15T11:18:42;97081.31;;;15.63;43.76
10992;BME280;5549;47.028;15.514;2024-02-15T11:21:11;97075.81;;;15.75;43.59
10992;BME280;5549;47.028;15.514;2024-02-15T11:23:41;97071.81;;;15.70;43.66
10992;BME280;5549;47.028;15.514;2024-02-15T11:26:43;97067.28;;;15.81;43.64
10992;BME280;5549;47.028;15.514;2024-02-15T11:29:51;97069.41;;;15.95;43.28
10992;BME280;5549;47.028;15.514;2024-02-15T11:32:40;97057.75;;;15.88;42.98
10992;BME280;5549;47.028;15.514;2024-02-15T11:35:16;97060.88;;;16.01;43.42
10992;BME280;5549;47.028;15.514;2024-02-15T11:37:56;97056.41;;;16.19;43.74
10992;BME280;5549;47.028;15.514;2024-02-15T11:41:01;97062.13;;;15.79;42.98
10992;BME280;5549;47.028;15.514;2024-02-15T11:43:52;97064.00;;;15.69;43.23
10992;BME280;5549;47.028;15.514;2024-02-15T11:46:23;97054.63;;;15.75;43.13
10992;BME280;5549;47.028;15.514;2024-02-15T11:48:59;97059.44;;;15.61;42.75
10992;BME280;5549;47.028;15.514;2024-02-15T11:51:31;97064.28;;;15.56;43.17
10992;BME280;5549;47.028;15.514;2024-02-15T11:54:07;97059.88;;;15.47;44.24
10992;BME280;5549;47.028;15.514;2024-02-15T11:56:53;97066.00;;;15.57;42.42
10992;BME280;5549;47.028;15.514;2024-02-15T11:59:39;97057.44;;;15.73;42.62
10992;BME280;5549;47.028;15.514;2024-02-15T12:02:22;97060.03;;;15.83;42.94
10992;BME280;5549;47.028;15.514;2024-02-15T12:05:09;97055.31;;;15.77;42.35
10992;BME280;5549;47.028;15.514;2024-02-15T12:07:59;97056.59;;;15.73;42.64
10992;BME280;5549;47.028;15.514;2024-02-15T12:10:43;97052.44;;;15.70;43.41
10992;BME280;5549;47.028;15.514;2024-02-15T12:13:33;97053.72;;;15.66;42.58
10992;BME280;5549;47.028;15.514;2024-02-15T12:16:20;97045.38;;;15.51;43.07
10992;BME280;5549;47.028;15.514;2024-02-15T12:19:07;97042.28;;;15.56;44.23
10992;BME280;5549;47.028;15.514;2024-02-15T12:21:39;97044.28;;;15.44;43.86
10992;BME280;5549;47.028;15.514;2024-02-15T12:24:09;97039.25;;;15.60;43.67
10992;BME280;5549;47.028;15.514;2024-02-15T12:26:40;97034.50;;;15.64;43.50
10992;BME280;5549;47.028;15.514;2024-02-15T12:29:10;97029.72;;;15.67;43.62
10992;BME280;5549;47.028;15.514;2024-02-15T12:31:38;97030.41;;;15.69;43.69
10992;BME280;5549;47.028;15.514;2024-02-15T12:34:06;97035.50;;;15.81;44.08
10992;BME280;5549;47.028;15.514;2024-02-15T12:36:37;97032.63;;;15.74;43.38
10992;BME280;5549;47.028;15.514;2024-02-15T12:39:06;97033.84;;;15.80;43.46
10992;BME280;5549;47.028;15.514;2024-02-15T12:41:40;97030.19;;;15.81;43.07
10992;BME280;5549;47.028;15.514;2024-02-15T12:44:08;97033.91;;;15.70;42.93
10992;BME280;5549;47.028;15.514;2024-02-15T12:46:37;97028.66;;;15.60;43.60
10992;BME280;5549;47.028;15.514;2024-02-15T12:49:27;97028.38;;;15.63;43.44
10992;BME280;5549;47.028;15.514;2024-02-15T12:52:37;97018.59;;;15.54;44.48
10992;BME280;5549;47.028;15.514;2024-02-15T12:55:16;97003.13;;;15.59;43.59
10992;BME280;5549;47.028;15.514;2024-02-15T12:57:49;97004.09;;;15.68;43.50
10992;BME280;5549;47.028;15.514;2024-02-15T13:00:21;96997.28;;;15.65;43.72
10992;BME280;5549;47.028;15.514;2024-02-15T13:02:51;96997.16;;;15.57;43.12
10992;BME280;5549;47.028;15.514;2024-02-15T13:05:22;97004.53;;;15.54;43.18
10992;BME280;5549;47.028;15.514;2024-02-15T13:07:55;97002.19;;;15.51;43.63
10992;BME280;5549;47.028;15.514;2024-02-15T13:10:27;96999.38;;;15.52;43.13
10992;BME280;5549;47.028;15.514;2024-02-15T13:12:57;97002.88;;;15.62;42.77
10992;BME280;5549;47.028;15.514;2024-02-15T13:15:25;96997.56;;;15.62;43.32
10992;BME280;5549;47.028;15.514;2024-02-15T13:17:59;96998.56;;;15.61;42.94
10992;BME280;5549;47.028;15.514;2024-02-15T13:20:32;96996.88;;;15.51;43.38
10992;BME280;5549;47.028;15.514;2024-02-15T13:23:05;96991.44;;;15.62;43.47
10992;BME280;5549;47.028;15.514;2024-02-15T13:25:38;96981.84;;;15.51;42.58
10992;BME280;5549;47.028;15.514;2024-02-15T13:28:07;96979.88;;;15.53;42.27